sensor_id;sensor_type;location;lat;lon;timestamp;P1;durP1;ratioP1;P2;durP2;ratioP2
8017;SDS011;4054;52.666;4.770;2022-08-05T00:00:32;71.00;;;64.90;;
8017;SDS011;4054;52.666;4.770;2022-08-05T00:01:17;71.07;;;64.88;;
8017;SDS011;4054;52.666;4.770;2022-08-05T00:01:59;71.65;;;65.45;;
8017;SDS011;4054;52.666;4.770;2022-08-05T00:02:41;70.97;;;64.78;;
8017;SDS011;4054;52.666;4.770;2022-08-05T00:03:21;71.20;;;64.97;;
8017;SDS011;4054;52.666;4.770;2022-08-05T00:03:55;71.63;;;65.43;;
8017;SDS011;4054;52.666;4.770;2022-08-05T00:04:27;71.47;;;65.25;;
8017;SDS011;4054;52.666;4.770;2022-08-05T00:05:00;71.30;;;64.95;;
8017;SDS011;4054;52.666;4.770;2022-08-05T00:05:36;71.15;;;65.15;;
8017;SDS011;4054;52.666;4.770;2022-08-05T00:06:28;71.70;;;65.50;;
8017;SDS011;4054;52.666;4.770;2022-08-05T00:07:06;72.55;;;66.13;;
8017;SDS011;4054;52.666;4.770;2022-08-05T00:07:58;71.97;;;65.57;;
8017;SDS011;4054;52.666;4.770;2022-08-05T00:08:32;71.03;;;65.00;;
8017;SDS011;4054;52.666;4.770;2022-08-05T00:09:06;71.63;;;65.45;;
8017;SDS011;4054;52.666;4.770;2022-08-05T00:09:45;69.95;;;64.30;;
8017;SDS011;4054;52.666;4.770;2022-08-05T00:10:18;70.60;;;64.60;;
8017;SDS011;4054;52.666;4.770;2022-08-05T00:10:57;71.20;;;65.20;;
8017;SDS011;4054;52.666;4.770;2022-08-05T00:11:31;73.22;;;66.03;;
8017;SDS011;4054;52.666;4.770;2022-08-05T00:12:18;71.45;;;65.15;;
8017;SDS011;4054;52.666;4.770;2022-08-05T00:12:50;72.53;;;66.15;;
8017;SDS011;4054;52.666;4.770;2022-08-05T00:13:28;71.75;;;65.28;;
8017;SDS011;4054;52.666;4.770;2022-08-05T00:14:10;71.57;;;65.57;;
8017;SDS011;4054;52.666;4.770;2022-08-05T00:14:47;72.32;;;65.45;;
8017;SDS011;4054;52.666;4.770;2022-08-05T00:15:22;70.90;;;65.00;;
8017;SDS011;4054;52.666;4.770;2022-08-05T00:16:15;70.15;;;64.45;;
8017;SDS011;4054;52.666;4.770;2022-08-05T00:17:06;71.25;;;64.85;;
8017;SDS011;4054;52.666;4.770;2022-08-05T00:17:50;71.90;;;65.50;;
8017;SDS011;4054;52.666;4.770;2022-08-05T00:18:22;71.63;;;65.63;;
8017;SDS011;4054;52.666;4.770;2022-08-05T00:18:55;71.25;;;64.93;;
8017;SDS011;4054;52.666;4.770;2022-08-05T00:19:27;71.38;;;65.15;;
8017;SDS011;4054;52.666;4.770;2022-08-05T00:20:14;70.50;;;64.60;;
8017;SDS011;4054;52.666;4.770;2022-08-05T00:20:50;71.07;;;65.03;;
8017;SDS011;4054;52.666;4.770;2022-08-05T00:21:23;70.95;;;64.85;;
8017;SDS011;4054;52.666;4.770;2022-08-05T00:22:00;71.35;;;65.03;;
8017;SDS011;4054;52.666;4.770;2022-08-05T00:22:34;71.50;;;65.47;;
8017;SDS011;4054;52.666;4.770;2022-08-05T00:23:08;72.32;;;66.10;;
8017;SDS011;4054;52.666;4.770;2022-08-05T00:23:44;70.90;;;65.10;;
8017;SDS011;4054;52.666;4.770;2022-08-05T00:24:38;71.22;;;64.82;;
8017;SDS011;4054;52.666;4.770;2022-08-05T00:25:13;71.13;;;64.90;;
8017;SDS011;4054;52.666;4.770;2022-08-05T00:25:46;71.18;;;65.38;;
8017;SDS011;4054;52.666;4.770;2022-08-05T00:26:24;71.25;;;65.22;;
8017;SDS011;4054;52.666;4.770;2022-08-05T00:27:00;72.18;;;65.45;;
8017;SDS011;4054;52.666;4.770;2022-08-05T00:27:40;72.05;;;65.40;;
8017;SDS011;4054;52.666;4.770;2022-08-05T00:28:13;71.40;;;65.15;;
8017;SDS011;4054;52.666;4.770;2022-08-05T00:28:59;70.45;;;64.60;;
8017;SDS011;4054;52.666;4.770;2022-08-05T00:29:32;71.10;;;64.70;;
8017;SDS011;4054;52.666;4.770;2022-08-05T00:30:09;71.75;;;65.47;;
8017;SDS011;4054;52.666;4.770;2022-08-05T00:30:42;70.95;;;64.78;;
8017;SDS011;4054;52.666;4.770;2022-08-05T00:31:15;71.68;;;64.85;;
8017;SDS011;4054;52.666;4.770;2022-08-05T00:32:09;70.75;;;64.95;;
8017;SDS011;4054;52.666;4.770;2022-08-05T00:32:46;70.57;;;64.80;;
8017;SDS011;4054;52.666;4.770;2022-08-05T00:33:20;69.65;;;63.95;;
8017;SDS011;4054;52.666;4.770;2022-08-05T00:34:12;70.47;;;64.47;;
8017;SDS011;4054;52.666;4.770;2022-08-05T00:35:06;71.20;;;65.05;;
8017;SDS011;4054;52.666;4.770;2022-08-05T00:35:39;72.15;;;66.00;;
8017;SDS011;4054;52.666;4.770;2022-08-05T00:36:32;71.75;;;65.28;;
8017;SDS011;4054;52.666;4.770;2022-08-05T00:37:24;69.93;;;64.18;;
8017;SDS011;4054;52.666;4.770;2022-08-05T00:38:17;70.95;;;64.88;;
8017;SDS011;4054;52.666;4.770;2022-08-05T00:38:59;71.75;;;65.55;;
8017;SDS011;4054;52.666;4.770;2022-08-05T00:39:32;71.45;;;65.45;;
8017;SDS011;4054;52.666;4.770;2022-08-05T00:40:25;72.03;;;65.63;;
8017;SDS011;4054;52.666;4.770;2022-08-05T00:40:59;71.72;;;65.25;;
8017;SDS011;4054;52.666;4.770;2022-08-05T00:41:44;71.22;;;65.05;;
8017;SDS011;4054;52.666;4.770;2022-08-05T00:42:29;71.30;;;65.20;;
8017;SDS011;4054;52.666;4.770;2022-08-05T00:43:03;70.85;;;64.90;;
8017;SDS011;4054;52.666;4.770;2022-08-05T00:43:38;70.72;;;65.03;;
8017;SDS011;4054;52.666;4.770;2022-08-05T00:44:19;70.88;;;64.88;;
8017;SDS011;4054;52.666;4.770;2022-08-05T00:44:53;72.03;;;65.78;;
8017;SDS011;4054;52.666;4.770;2022-08-05T00:45:26;71.40;;;65.47;;
8017;SDS011;4054;52.666;4.770;2022-08-05T00:46:09;71.00;;;64.70;;
8017;SDS011;4054;52.666;4.770;2022-08-05T00:46:46;71.50;;;65.60;;
8017;SDS011;4054;52.666;4.770;2022-08-05T00:47:24;72.55;;;66.07;;
8017;SDS011;4054;52.666;4.770;2022-08-05T00:48:17;72.10;;;65.78;;
8017;SDS011;4054;52.666;4.770;2022-08-05T00:49:02;71.90;;;65.68;;
8017;SDS011;4054;52.666;4.770;2022-08-05T00:49:34;72.30;;;65.97;;
8017;SDS011;4054;52.666;4.770;2022-08-05T00:50:21;71.82;;;65.72;;
8017;SDS011;4054;52.666;4.770;2022-08-05T00:50:55;71.00;;;65.10;;
8017;SDS011;4054;52.666;4.770;2022-08-05T00:51:28;70.68;;;65.00;;
8017;SDS011;4054;52.666;4.770;2022-08-05T00:52:21;71.15;;;65.25;;
8017;SDS011;4054;52.666;4.770;2022-08-05T00:52:59;71.47;;;65.43;;
8017;SDS011;4054;52.666;4.770;2022-08-05T00:53:32;71.32;;;65.22;;
8017;SDS011;4054;52.666;4.770;2022-08-05T00:54:24;71.25;;;65.20;;
8017;SDS011;4054;52.666;4.770;2022-08-05T00:55:00;72.38;;;66.10;;
8017;SDS011;4054;52.666;4.770;2022-08-05T00:55:33;72.32;;;65.80;;
8017;SDS011;4054;52.666;4.770;2022-08-05T00:56:14;70.72;;;64.63;;
8017;SDS011;4054;52.666;4.770;2022-08-05T00:56:53;71.35;;;65.00;;
8017;SDS011;4054;52.666;4.770;2022-08-05T00:57:25;71.78;;;65.28;;
8017;SDS011;4054;52.666;4.770;2022-08-05T00:58:17;70.85;;;65.07;;
8017;SDS011;4054;52.666;4.770;2022-08-05T00:58:50;71.32;;;65.43;;
8017;SDS011;4054;52.666;4.770;2022-08-05T00:59:23;70.65;;;64.72;;
8017;SDS011;4054;52.666;4.770;2022-08-05T01:00:05;71.13;;;65.13;;
8017;SDS011;4054;52.666;4.770;2022-08-05T01:00:41;71.55;;;65.53;;
8017;SDS011;4054;52.666;4.770;2022-08-05T01:01:15;70.97;;;65.18;;
8017;SDS011;4054;52.666;4.770;2022-08-05T01:02:09;70.57;;;64.60;;
8017;SDS011;4054;52.666;4.770;2022-08-05T01:02:41;71.88;;;65.65;;
8017;SDS011;4054;52.666;4.770;2022-08-05T01:03:13;71.05;;;65.15;;
8017;SDS011;4054;52.666;4.770;2022-08-05T01:03:53;72.03;;;65.88;;
8017;SDS011;4054;52.666;4.770;2022-08-05T01:04:25;71.38;;;65.47;;
8017;SDS011;4054;52.666;4.770;2022-08-05T01:05:00;71.18;;;65.07;;
8017;SDS011;4054;52.666;4.770;2022-08-05T01:05:40;70.80;;;64.88;;
8017;SDS011;4054;52.666;4.770;2022-08-05T01:06:12;71.72;;;65.63;;
8017;SDS011;4054;52.666;4.770;2022-08-05T01:06:47;71.15;;;65.15;;
8017;SDS011;4054;52.666;4.770;2022-08-05T01:07:22;71.47;;;65.47;;
8017;SDS011;4054;52.666;4.770;2022-08-05T01:08:02;71.75;;;65.50;;
8017;SDS011;4054;52.666;4.770;2022-08-05T01:08:55;71.32;;;65.40;;
8017;SDS011;4054;52.666;4.770;2022-08-05T01:09:28;71.20;;;65.30;;
8017;SDS011;4054;52.666;4.770;2022-08-05T01:10:01;70.82;;;64.82;;
8017;SDS011;4054;52.666;4.770;2022-08-05T01:10:40;70.80;;;64.78;;
8017;SDS011;4054;52.666;4.770;2022-08-05T01:11:23;72.10;;;66.00;;
8017;SDS011;4054;52.666;4.770;2022-08-05T01:12:05;71.10;;;65.30;;
8017;SDS011;4054;52.666;4.770;2022-08-05T01:12:51;70.43;;;64.55;;
8017;SDS011;4054;52.666;4.770;2022-08-05T01:13:46;70.85;;;64.85;;
8017;SDS011;4054;52.666;4.770;2022-08-05T01:14:31;72.68;;;65.97;;
8017;SDS011;4054;52.666;4.770;2022-08-05T01:15:07;71.47;;;65.18;;
8017;SDS011;4054;52.666;4.770;2022-08-05T01:16:02;71.40;;;65.35;;
8017;SDS011;4054;52.666;4.770;2022-08-05T01:16:39;71.88;;;65.70;;
8017;SDS011;4054;52.666;4.770;2022-08-05T01:17:22;71.70;;;65.20;;
8017;SDS011;4054;52.666;4.770;2022-08-05T01:17:58;71.97;;;65.57;;
8017;SDS011;4054;52.666;4.770;2022-08-05T01:18:39;70.55;;;64.53;;
8017;SDS011;4054;52.666;4.770;2022-08-05T01:19:30;71.93;;;65.78;;
8017;SDS011;4054;52.666;4.770;2022-08-05T01:20:29;72.43;;;65.88;;
8017;SDS011;4054;52.666;4.770;2022-08-05T01:21:11;71.10;;;64.97;;
8017;SDS011;4054;52.666;4.770;2022-08-05T01:23:24;71.75;;;65.65;;
8017;SDS011;4054;52.666;4.770;2022-08-05T01:24:09;72.22;;;65.80;;
8017;SDS011;4054;52.666;4.770;2022-08-05T01:25:00;71.40;;;65.35;;
8017;SDS011;4054;52.666;4.770;2022-08-05T01:25:47;71.38;;;65.28;;
8017;SDS011;4054;52.666;4.770;2022-08-05T01:26:32;71.72;;;65.72;;
8017;SDS011;4054;52.666;4.770;2022-08-05T01:27:12;72.18;;;66.15;;
8017;SDS011;4054;52.666;4.770;2022-08-05T01:28:12;71.53;;;65.53;;
8017;SDS011;4054;52.666;4.770;2022-08-05T01:28:49;71.50;;;65.40;;
8017;SDS011;4054;52.666;4.770;2022-08-05T01:29:26;72.30;;;66.25;;
8017;SDS011;4054;52.666;4.770;2022-08-05T01:30:05;71.53;;;65.40;;
8017;SDS011;4054;52.666;4.770;2022-08-05T01:30:50;72.90;;;66.90;;
8017;SDS011;4054;52.666;4.770;2022-08-05T01:31:27;71.53;;;65.60;;
8017;SDS011;4054;52.666;4.770;2022-08-05T01:32:16;71.97;;;65.68;;
8017;SDS011;4054;52.666;4.770;2022-08-05T01:32:52;73.15;;;66.75;;
8017;SDS011;4054;52.666;4.770;2022-08-05T01:33:30;72.75;;;66.25;;
8017;SDS011;4054;52.666;4.770;2022-08-05T01:34:09;71.07;;;65.13;;
8017;SDS011;4054;52.666;4.770;2022-08-05T01:34:44;73.07;;;66.38;;
8017;SDS011;4054;52.666;4.770;2022-08-05T01:35:22;71.18;;;65.38;;
8017;SDS011;4054;52.666;4.770;2022-08-05T01:36:19;71.60;;;65.63;;
8017;SDS011;4054;52.666;4.770;2022-08-05T01:37:01;71.93;;;65.93;;
8017;SDS011;4054;52.666;4.770;2022-08-05T01:37:40;72.10;;;65.65;;
8017;SDS011;4054;52.666;4.770;2022-08-05T01:38:16;71.18;;;65.18;;
8017;SDS011;4054;52.666;4.770;2022-08-05T01:38:58;71.72;;;65.32;;
8017;SDS011;4054;52.666;4.770;2022-08-05T01:39:33;71.90;;;66.00;;
8017;SDS011;4054;52.666;4.770;2022-08-05T01:40:18;71.20;;;65.30;;
8017;SDS011;4054;52.666;4.770;2022-08-05T01:40:59;71.85;;;65.65;;
8017;SDS011;4054;52.666;4.770;2022-08-05T01:41:33;72.97;;;66.28;;
8017;SDS011;4054;52.666;4.770;2022-08-05T01:42:08;72.43;;;66.30;;
8017;SDS011;4054;52.666;4.770;2022-08-05T01:42:45;71.05;;;65.13;;
8017;SDS011;4054;52.666;4.770;2022-08-05T01:43:23;71.68;;;65.53;;
8017;SDS011;4054;52.666;4.770;2022-08-05T01:43:58;71.93;;;65.60;;
8017;SDS011;4054;52.666;4.770;2022-08-05T01:44:33;70.95;;;64.95;;
8017;SDS011;4054;52.666;4.770;2022-08-05T01:45:06;70.88;;;64.88;;
8017;SDS011;4054;52.666;4.770;2022-08-05T01:45:39;71.53;;;65.38;;
8017;SDS011;4054;52.666;4.770;2022-08-05T01:46:13;72.25;;;65.97;;
8017;SDS011;4054;52.666;4.770;2022-08-05T01:47:07;71.30;;;65.40;;
8017;SDS011;4054;52.666;4.770;2022-08-05T01:47:43;72.05;;;66.03;;
8017;SDS011;4054;52.666;4.770;2022-08-05T01:48:18;71.57;;;65.35;;
8017;SDS011;4054;52.666;4.770;2022-08-05T01:48:51;71.43;;;65.13;;
8017;SDS011;4054;52.666;4.770;2022-08-05T01:49:26;71.90;;;65.80;;
8017;SDS011;4054;52.666;4.770;2022-08-05T01:50:20;70.78;;;64.95;;
8017;SDS011;4054;52.666;4.770;2022-08-05T01:51:00;70.80;;;65.00;;
8017;SDS011;4054;52.666;4.770;2022-08-05T01:51:42;71.50;;;65.25;;
8017;SDS011;4054;52.666;4.770;2022-08-05T01:52:22;71.15;;;65.15;;
8017;SDS011;4054;52.666;4.770;2022-08-05T01:52:57;71.82;;;65.57;;
8017;SDS011;4054;52.666;4.770;2022-08-05T01:53:32;71.50;;;65.28;;
8017;SDS011;4054;52.666;4.770;2022-08-05T01:54:27;71.40;;;65.53;;
8017;SDS011;4054;52.666;4.770;2022-08-05T01:55:16;70.20;;;64.45;;
8017;SDS011;4054;52.666;4.770;2022-08-05T01:55:51;71.78;;;65.80;;
8017;SDS011;4054;52.666;4.770;2022-08-05T01:56:29;71.47;;;65.18;;
8017;SDS011;4054;52.666;4.770;2022-08-05T01:57:24;70.25;;;64.68;;
8017;SDS011;4054;52.666;4.770;2022-08-05T01:58:18;71.40;;;65.55;;
8017;SDS011;4054;52.666;4.770;2022-08-05T01:59:14;70.55;;;64.50;;
8017;SDS011;4054;52.666;4.770;2022-08-05T01:59:49;71.53;;;65.07;;
8017;SDS011;4054;52.666;4.770;2022-08-05T02:00:25;71.93;;;65.57;;
8017;SDS011;4054;52.666;4.770;2022-08-05T02:01:01;71.13;;;64.95;;
8017;SDS011;4054;52.666;4.770;2022-08-05T02:01:33;70.70;;;64.80;;
8017;SDS011;4054;52.666;4.770;2022-08-05T02:02:11;71.47;;;65.35;;
8017;SDS011;4054;52.666;4.770;2022-08-05T02:02:47;70.63;;;64.72;;
8017;SDS011;4054;52.666;4.770;2022-08-05T02:03:28;70.50;;;64.65;;
8017;SDS011;4054;52.666;4.770;2022-08-05T02:04:04;70.60;;;64.78;;
8017;SDS011;4054;52.666;4.770;2022-08-05T02:04:37;70.35;;;64.50;;
8017;SDS011;4054;52.666;4.770;2022-08-05T02:05:16;70.90;;;65.10;;
8017;SDS011;4054;52.666;4.770;2022-08-05T02:05:53;70.72;;;64.72;;
8017;SDS011;4054;52.666;4.770;2022-08-05T02:06:30;70.18;;;64.47;;
8017;SDS011;4054;52.666;4.770;2022-08-05T02:07:09;70.45;;;64.80;;
8017;SDS011;4054;52.666;4.770;2022-08-05T02:07:52;71.13;;;65.18;;
8017;SDS011;4054;52.666;4.770;2022-08-05T02:08:31;72.10;;;65.93;;
8017;SDS011;4054;52.666;4.770;2022-08-05T02:09:24;71.05;;;64.82;;
8017;SDS011;4054;52.666;4.770;2022-08-05T02:09:58;71.10;;;64.60;;
8017;SDS011;4054;52.666;4.770;2022-08-05T02:10:31;69.88;;;64.18;;
8017;SDS011;4054;52.666;4.770;2022-08-05T02:11:07;70.80;;;64.97;;
8017;SDS011;4054;52.666;4.770;2022-08-05T02:11:44;70.85;;;64.80;;
8017;SDS011;4054;52.666;4.770;2022-08-05T02:12:24;70.70;;;64.72;;
8017;SDS011;4054;52.666;4.770;2022-08-05T02:13:07;72.03;;;65.13;;
8017;SDS011;4054;52.666;4.770;2022-08-05T02:13:50;70.18;;;64.45;;
8017;SDS011;4054;52.666;4.770;2022-08-05T02:14:31;71.03;;;64.93;;
8017;SDS011;4054;52.666;4.770;2022-08-05T02:15:08;70.47;;;64.78;;
8017;SDS011;4054;52.666;4.770;2022-08-05T02:15:52;70.22;;;64.28;;
8017;SDS011;4054;52.666;4.770;2022-08-05T02:16:29;70.80;;;65.00;;
8017;SDS011;4054;52.666;4.770;2022-08-05T02:17:09;70.80;;;64.78;;
8017;SDS011;4054;52.666;4.770;2022-08-05T02:18:06;70.13;;;64.50;;
8017;SDS011;4054;52.666;4.770;2022-08-05T02:19:04;71.07;;;65.18;;
8017;SDS011;4054;52.666;4.770;2022-08-05T02:19:42;70.78;;;64.95;;
8017;SDS011;4054;52.666;4.770;2022-08-05T02:20:21;70.38;;;64.57;;
8017;SDS011;4054;52.666;4.770;2022-08-05T02:20:57;71.28;;;65.05;;
8017;SDS011;4054;52.666;4.770;2022-08-05T02:21:40;71.47;;;65.03;;
8017;SDS011;4054;52.666;4.770;2022-08-05T02:22:20;71.20;;;65.50;;
8017;SDS011;4054;52.666;4.770;2022-08-05T02:22:58;72.68;;;66.05;;
8017;SDS011;4054;52.666;4.770;2022-08-05T02:23:36;73.50;;;67.00;;
8017;SDS011;4054;52.666;4.770;2022-08-05T02:24:13;71.95;;;65.82;;
8017;SDS011;4054;52.666;4.770;2022-08-05T02:24:54;71.10;;;65.10;;
8017;SDS011;4054;52.666;4.770;2022-08-05T02:25:33;71.25;;;65.50;;
8017;SDS011;4054;52.666;4.770;2022-08-05T02:26:23;71.60;;;65.40;;
8017;SDS011;4054;52.666;4.770;2022-08-05T02:27:00;71.97;;;65.95;;
8017;SDS011;4054;52.666;4.770;2022-08-05T02:27:40;72.40;;;65.80;;
8017;SDS011;4054;52.666;4.770;2022-08-05T02:28:30;71.97;;;65.65;;
8017;SDS011;4054;52.666;4.770;2022-08-05T02:29:12;71.82;;;65.72;;
8017;SDS011;4054;52.666;4.770;2022-08-05T02:29:53;71.53;;;65.40;;
8017;SDS011;4054;52.666;4.770;2022-08-05T02:30:31;71.72;;;65.43;;
8017;SDS011;4054;52.666;4.770;2022-08-05T02:31:22;71.85;;;65.78;;
8017;SDS011;4054;52.666;4.770;2022-08-05T02:31:58;71.90;;;65.60;;
8017;SDS011;4054;52.666;4.770;2022-08-05T02:32:35;72.32;;;66.13;;
8017;SDS011;4054;52.666;4.770;2022-08-05T02:33:10;71.90;;;65.88;;
8017;SDS011;4054;52.666;4.770;2022-08-05T02:33:56;70.20;;;64.53;;
8017;SDS011;4054;52.666;4.770;2022-08-05T02:34:31;71.50;;;65.40;;
8017;SDS011;4054;52.666;4.770;2022-08-05T02:35:11;71.45;;;65.15;;
8017;SDS011;4054;52.666;4.770;2022-08-05T02:35:58;71.78;;;65.78;;
8017;SDS011;4054;52.666;4.770;2022-08-05T02:36:33;71.82;;;65.72;;
8017;SDS011;4054;52.666;4.770;2022-08-05T02:37:07;72.85;;;66.75;;
8017;SDS011;4054;52.666;4.770;2022-08-05T02:37:41;72.57;;;66.40;;
8017;SDS011;4054;52.666;4.770;2022-08-05T02:38:24;72.55;;;66.25;;
8017;SDS011;4054;52.666;4.770;2022-08-05T02:39:05;73.18;;;66.43;;
8017;SDS011;4054;52.666;4.770;2022-08-05T02:39:40;73.75;;;67.10;;
8017;SDS011;4054;52.666;4.770;2022-08-05T02:40:18;71.72;;;65.85;;
8017;SDS011;4054;52.666;4.770;2022-08-05T02:40:51;72.18;;;66.13;;
8017;SDS011;4054;52.666;4.770;2022-08-05T02:41:25;72.00;;;65.90;;
8017;SDS011;4054;52.666;4.770;2022-08-05T02:42:18;72.15;;;66.25;;
8017;SDS011;4054;52.666;4.770;2022-08-05T02:43:01;72.15;;;66.25;;
8017;SDS011;4054;52.666;4.770;2022-08-05T02:43:37;72.25;;;66.18;;
8017;SDS011;4054;52.666;4.770;2022-08-05T02:44:31;72.88;;;66.47;;
8017;SDS011;4054;52.666;4.770;2022-08-05T02:45:09;71.72;;;65.65;;
8017;SDS011;4054;52.666;4.770;2022-08-05T02:45:42;72.75;;;66.10;;
8017;SDS011;4054;52.666;4.770;2022-08-05T02:46:24;71.30;;;65.30;;
8017;SDS011;4054;52.666;4.770;2022-08-05T02:47:00;71.93;;;65.82;;
8017;SDS011;4054;52.666;4.770;2022-08-05T02:47:34;72.47;;;66.18;;
8017;SDS011;4054;52.666;4.770;2022-08-05T02:48:27;72.03;;;65.97;;
8017;SDS011;4054;52.666;4.770;2022-08-05T02:49:01;72.78;;;66.18;;
8017;SDS011;4054;52.666;4.770;2022-08-05T02:49:41;72.78;;;66.40;;
8017;SDS011;4054;52.666;4.770;2022-08-05T02:50:16;72.15;;;66.05;;
8017;SDS011;4054;52.666;4.770;2022-08-05T02:50:49;71.63;;;65.63;;
8017;SDS011;4054;52.666;4.770;2022-08-05T02:51:23;71.68;;;65.75;;
8017;SDS011;4054;52.666;4.770;2022-08-05T02:52:17;71.30;;;65.45;;
8017;SDS011;4054;52.666;4.770;2022-08-05T02:53:01;72.75;;;65.68;;
8017;SDS011;4054;52.666;4.770;2022-08-05T02:53:34;71.57;;;65.75;;
8017;SDS011;4054;52.666;4.770;2022-08-05T02:54:10;71.50;;;65.50;;
8017;SDS011;4054;52.666;4.770;2022-08-05T02:55:03;72.53;;;66.10;;
8017;SDS011;4054;52.666;4.770;2022-08-05T02:55:42;71.30;;;65.05;;
8017;SDS011;4054;52.666;4.770;2022-08-05T02:56:30;72.10;;;65.80;;
8017;SDS011;4054;52.666;4.770;2022-08-05T02:57:04;70.95;;;64.97;;
8017;SDS011;4054;52.666;4.770;2022-08-05T02:57:59;71.38;;;65.47;;
8017;SDS011;4054;52.666;4.770;2022-08-05T02:58:43;71.50;;;65.50;;
8017;SDS011;4054;52.666;4.770;2022-08-05T02:59:23;71.00;;;65.00;;
8017;SDS011;4054;52.666;4.770;2022-08-05T02:59:58;71.95;;;65.93;;
8017;SDS011;4054;52.666;4.770;2022-08-05T03:00:33;70.80;;;64.95;;
8017;SDS011;4054;52.666;4.770;2022-08-05T03:01:10;71.60;;;65.40;;
8017;SDS011;4054;52.666;4.770;2022-08-05T03:01:46;71.93;;;65.75;;
8017;SDS011;4054;52.666;4.770;2022-08-05T03:02:23;71.03;;;65.22;;
8017;SDS011;4054;52.666;4.770;2022-08-05T03:03:01;71.00;;;65.10;;
8017;SDS011;4054;52.666;4.770;2022-08-05T03:03:41;70.88;;;64.90;;
8017;SDS011;4054;52.666;4.770;2022-08-05T03:04:33;70.50;;;64.80;;
8017;SDS011;4054;52.666;4.770;2022-08-05T03:05:08;72.85;;;66.65;;
8017;SDS011;4054;52.666;4.770;2022-08-05T03:05:42;70.38;;;64.78;;
8017;SDS011;4054;52.666;4.770;2022-08-05T03:06:34;71.13;;;65.05;;
8017;SDS011;4054;52.666;4.770;2022-08-05T03:07:28;72.43;;;66.00;;
8017;SDS011;4054;52.666;4.770;2022-08-05T03:08:21;70.45;;;64.85;;
8017;SDS011;4054;52.666;4.770;2022-08-05T03:09:00;70.50;;;64.65;;
8017;SDS011;4054;52.666;4.770;2022-08-05T03:09:34;70.63;;;64.63;;
8017;SDS011;4054;52.666;4.770;2022-08-05T03:10:15;71.05;;;64.95;;
8017;SDS011;4054;52.666;4.770;2022-08-05T03:10:55;70.80;;;64.90;;
8017;SDS011;4054;52.666;4.770;2022-08-05T03:11:47;70.25;;;64.45;;
8017;SDS011;4054;52.666;4.770;2022-08-05T03:12:28;69.95;;;64.35;;
8017;SDS011;4054;52.666;4.770;2022-08-05T03:13:01;71.57;;;65.57;;
8017;SDS011;4054;52.666;4.770;2022-08-05T03:13:47;69.95;;;64.20;;
8017;SDS011;4054;52.666;4.770;2022-08-05T03:14:33;70.30;;;64.07;;
8017;SDS011;4054;52.666;4.770;2022-08-05T03:15:16;69.28;;;63.72;;
8017;SDS011;4054;52.666;4.770;2022-08-05T03:15:50;69.70;;;64.07;;
8017;SDS011;4054;52.666;4.770;2022-08-05T03:16:22;70.07;;;64.07;;
8017;SDS011;4054;52.666;4.770;2022-08-05T03:16:58;69.95;;;64.25;;
8017;SDS011;4054;52.666;4.770;2022-08-05T03:17:31;70.55;;;64.75;;
8017;SDS011;4054;52.666;4.770;2022-08-05T03:18:12;70.37;;;64.30;;
8017;SDS011;4054;52.666;4.770;2022-08-05T03:18:47;70.78;;;64.28;;
8017;SDS011;4054;52.666;4.770;2022-08-05T03:19:19;70.25;;;64.47;;
8017;SDS011;4054;52.666;4.770;2022-08-05T03:20:06;69.47;;;63.83;;
8017;SDS011;4054;52.666;4.770;2022-08-05T03:20:40;69.63;;;63.92;;
8017;SDS011;4054;52.666;4.770;2022-08-05T03:21:19;69.32;;;63.72;;
8017;SDS011;4054;52.666;4.770;2022-08-05T03:21:52;69.82;;;64.03;;
8017;SDS011;4054;52.666;4.770;2022-08-05T03:22:25;70.10;;;64.35;;
8017;SDS011;4054;52.666;4.770;2022-08-05T03:23:03;69.47;;;63.70;;
8017;SDS011;4054;52.666;4.770;2022-08-05T03:23:37;69.47;;;63.92;;
8017;SDS011;4054;52.666;4.770;2022-08-05T03:24:16;69.60;;;63.97;;
8017;SDS011;4054;52.666;4.770;2022-08-05T03:25:00;68.90;;;63.40;;
8017;SDS011;4054;52.666;4.770;2022-08-05T03:25:54;69.65;;;63.85;;
8017;SDS011;4054;52.666;4.770;2022-08-05T03:26:46;70.13;;;64.03;;
8017;SDS011;4054;52.666;4.770;2022-08-05T03:27:19;69.38;;;63.88;;
8017;SDS011;4054;52.666;4.770;2022-08-05T03:28:00;69.13;;;63.55;;
8017;SDS011;4054;52.666;4.770;2022-08-05T03:28:33;69.32;;;63.80;;
8017;SDS011;4054;52.666;4.770;2022-08-05T03:29:06;70.25;;;64.57;;
8017;SDS011;4054;52.666;4.770;2022-08-05T03:29:42;69.20;;;63.70;;
8017;SDS011;4054;52.666;4.770;2022-08-05T03:30:34;70.00;;;63.95;;
8017;SDS011;4054;52.666;4.770;2022-08-05T03:31:14;69.82;;;64.32;;
8017;SDS011;4054;52.666;4.770;2022-08-05T03:32:06;69.50;;;63.83;;
8017;SDS011;4054;52.666;4.770;2022-08-05T03:32:41;69.55;;;63.88;;
8017;SDS011;4054;52.666;4.770;2022-08-05T03:33:14;69.60;;;63.92;;
8017;SDS011;4054;52.666;4.770;2022-08-05T03:33:47;69.40;;;63.85;;
8017;SDS011;4054;52.666;4.770;2022-08-05T03:34:23;71.13;;;64.93;;
8017;SDS011;4054;52.666;4.770;2022-08-05T03:34:57;70.05;;;64.22;;
8017;SDS011;4054;52.666;4.770;2022-08-05T03:35:31;69.28;;;63.47;;
8017;SDS011;4054;52.666;4.770;2022-08-05T03:36:11;69.13;;;63.63;;
8017;SDS011;4054;52.666;4.770;2022-08-05T03:36:44;69.75;;;64.15;;
8017;SDS011;4054;52.666;4.770;2022-08-05T03:37:22;68.93;;;63.53;;
8017;SDS011;4054;52.666;4.770;2022-08-05T03:37:58;69.90;;;64.03;;
8017;SDS011;4054;52.666;4.770;2022-08-05T03:38:30;69.78;;;63.90;;
8017;SDS011;4054;52.666;4.770;2022-08-05T03:39:07;69.82;;;63.95;;
8017;SDS011;4054;52.666;4.770;2022-08-05T03:39:51;69.80;;;64.05;;
8017;SDS011;4054;52.666;4.770;2022-08-05T03:40:29;69.45;;;63.80;;
8017;SDS011;4054;52.666;4.770;2022-08-05T03:41:03;69.95;;;64.25;;
8017;SDS011;4054;52.666;4.770;2022-08-05T03:41:41;70.70;;;64.57;;
8017;SDS011;4054;52.666;4.770;2022-08-05T03:42:17;69.13;;;63.53;;
8017;SDS011;4054;52.666;4.770;2022-08-05T03:42:50;69.18;;;63.53;;
8017;SDS011;4054;52.666;4.770;2022-08-05T03:43:23;69.25;;;63.75;;
8017;SDS011;4054;52.666;4.770;2022-08-05T03:44:15;69.53;;;63.85;;
8017;SDS011;4054;52.666;4.770;2022-08-05T03:44:50;70.20;;;64.22;;
8017;SDS011;4054;52.666;4.770;2022-08-05T03:45:22;69.40;;;63.60;;
8017;SDS011;4054;52.666;4.770;2022-08-05T03:45:55;69.97;;;64.25;;
8017;SDS011;4054;52.666;4.770;2022-08-05T03:46:31;70.63;;;64.63;;
8017;SDS011;4054;52.666;4.770;2022-08-05T03:47:03;71.18;;;64.97;;
8017;SDS011;4054;52.666;4.770;2022-08-05T03:47:36;69.70;;;64.10;;
8017;SDS011;4054;52.666;4.770;2022-08-05T03:48:12;70.15;;;63.95;;
8017;SDS011;4054;52.666;4.770;2022-08-05T03:48:52;69.40;;;63.70;;
8017;SDS011;4054;52.666;4.770;2022-08-05T03:49:25;70.13;;;64.35;;
8017;SDS011;4054;52.666;4.770;2022-08-05T03:50:17;69.60;;;64.03;;
8017;SDS011;4054;52.666;4.770;2022-08-05T03:50:50;69.30;;;63.83;;
8017;SDS011;4054;52.666;4.770;2022-08-05T03:51:37;69.07;;;63.50;;
8017;SDS011;4054;52.666;4.770;2022-08-05T03:52:34;68.97;;;63.28;;
8017;SDS011;4054;52.666;4.770;2022-08-05T03:53:34;70.07;;;64.05;;
8017;SDS011;4054;52.666;4.770;2022-08-05T03:54:32;68.80;;;63.42;;
8017;SDS011;4054;52.666;4.770;2022-08-05T03:55:31;69.90;;;63.70;;
8017;SDS011;4054;52.666;4.770;2022-08-05T03:56:25;69.80;;;64.00;;
8017;SDS011;4054;52.666;4.770;2022-08-05T03:57:06;69.72;;;63.83;;
8017;SDS011;4054;52.666;4.770;2022-08-05T03:57:48;69.05;;;63.45;;
8017;SDS011;4054;52.666;4.770;2022-08-05T03:58:23;69.18;;;63.58;;
8017;SDS011;4054;52.666;4.770;2022-08-05T03:59:00;69.55;;;63.88;;
8017;SDS011;4054;52.666;4.770;2022-08-05T03:59:36;68.95;;;63.45;;
8017;SDS011;4054;52.666;4.770;2022-08-05T04:00:25;68.97;;;63.45;;
8017;SDS011;4054;52.666;4.770;2022-08-05T04:01:01;69.50;;;63.90;;
8017;SDS011;4054;52.666;4.770;2022-08-05T04:01:39;69.75;;;64.00;;
8017;SDS011;4054;52.666;4.770;2022-08-05T04:02:18;69.60;;;63.95;;
8017;SDS011;4054;52.666;4.770;2022-08-05T04:03:09;70.25;;;64.35;;
8017;SDS011;4054;52.666;4.770;2022-08-05T04:03:58;69.97;;;64.13;;